Dakin Peak, Santa Catalina Island Weather observations

Data are for 10 minute period ending at time listed.
 Day   Time   Solar   Ave.   Ave.  Ave.  Vector    Max.   Stn.    Total
  of    of     Rad.   Air    Rel.  Wind   Wind     Wind   Baro.  Precip.
Year   Day            Temp.  Hum.  Speed  Dir.     Gust   Pres.         
2016   (PST)   W/m2    F      %     mph   deg.      mph    mb.     in.  
------------------------------------------------------------------------
  42   18:50    0.0    71   13.2     5    265.4     6.6    999.0   0.00  
  42   19:00    0.0    71   11.3     4    263.9     5.4    999.0   0.00  
  42   19:10    0.0    72   10.3     5    265.2     5.4    999.0   0.00  
  42   19:20    0.0    72    9.9     6    273.7     6.6    999.0   0.00  
  42   19:30    0.0    72    9.7     8    278.3     9.0    999.0   0.00  
  42   19:40    0.0    70   10.7     7    278.5     9.0    999.0   0.00  
  42   19:50    0.0    71   11.8     4    289.1     6.0    999.0   0.00  
  42   20:00    0.0    72   13.4     3    287.0     3.6    999.0   0.00  
  42   20:10    0.0    72   12.6     2    299.7     3.0    999.0   0.00  
  42   20:20    0.0    72   13.9     0     63.8     1.8    999.0   0.00  
  42   20:30    0.0    72   14.2     0     70.5     1.8    999.0   0.00  
  42   20:40    0.0    73   13.2     2     74.6     3.0    999.0   0.00  
  42   20:50    0.0    72   12.7     3    119.9     3.6    999.0   0.00  
  42   21:00    0.0    71   12.5     4    123.9     4.2    999.0   0.00  
  42   21:10    0.0    71   12.8     4    125.6     4.2    999.0   0.00  
  42   21:20    0.0    71   12.6     3    105.7     4.2    999.0   0.00  
  42   21:30    0.0    72   11.6     3     33.1     4.2    999.0   0.00  
  42   21:40    0.0    71   13.4     6    332.8     9.0    999.0   0.00  
  42   21:50    0.0    70   15.5     7    314.6    10.2    999.0   0.00  
  42   22:00    0.0    70   16.0     8    310.1     9.6    999.0   0.00  
  42   22:10    0.0    70   15.4     8    307.6     9.6    999.0   0.00  
  42   22:20    0.0    71   14.7     8    308.1     9.0    999.0   0.00  
  42   22:30    0.0    71   14.0     7    309.3     8.4    999.0   0.00  
  42   22:40    0.0    71   14.6     7    305.7     7.8    999.0   0.00  
  42   22:50    0.0    71   15.0     7    302.0     7.8    999.0   0.00  
  42   23:00    0.0    70   14.3     6    300.7     7.2    999.0   0.00  
  42   23:10    0.0    71   14.1     7    298.5     7.8    999.0   0.00  
  42   23:20    0.0    71   14.1     7    299.7     8.4    999.0   0.00  
  42   23:30    0.0    71   14.1     7    299.6     7.8    999.0   0.00  
  42   23:40    0.0    71   14.1     7    295.3     7.8    999.0   0.00  
  42   23:50    0.0    72   13.9     7    294.1     7.2    999.0   0.00  
  43    0:00    0.0    71   14.3     7    299.3     7.2    999.0   0.00  
  43    0:10    0.0    71   15.0     6    296.1     7.2    999.0   0.00  
  43    0:20    0.0    71   15.3     7    298.4     8.4    999.0   0.00  
  43    0:30    0.0    71   15.2     7    298.4     7.8    999.0   0.00  
  43    0:40    0.0    70   15.4     7    301.4     7.8    999.0   0.00  
  43    0:50    0.0    71   15.0     7    309.9     7.8    999.0   0.00  
  43    1:00    0.0    71   14.5     7    314.6     7.2    999.0   0.00  
  43    1:10    0.0    70   15.2     6    311.0     7.2    999.0   0.00  
  43    1:20    0.0    71   14.4     6    313.9     6.6    999.0   0.00  
  43    1:30    0.0    71   14.4     6    310.7     6.6    999.0   0.00  
  43    1:40    0.0    71   14.4     6    310.4     6.6    999.0   0.00  
  43    1:50    0.0    71   14.3     6    313.7     6.6    999.0   0.00  
  43    2:00    0.0    71   14.0     4    325.1     5.4    999.0   0.00  
  43    2:10    0.0    71   14.3     4    322.2     4.2    999.0   0.00  
  43    2:20    0.0    71   14.0     2    355.8     3.6    999.0   0.00  
  43    2:30    0.0    70   14.7     2    351.4     2.4    999.0   0.00  
  43    2:40    0.0    71   14.1     2    329.3     3.0    999.0   0.00  
  43    2:50    0.0    70   14.2     2    345.9     2.4    999.0   0.00  
  43    3:00    0.0    70   14.5     2      9.1     2.4    999.0   0.00  
  43    3:10    0.0    70   14.3     2    356.9     2.4    999.0   0.00  
  43    3:20    0.0    70   14.4     2     14.1     2.4    999.0   0.00  
  43    3:30    0.0    70   14.3     2    342.2     3.0    999.0   0.00  
  43    3:40    0.0    70   14.6     2    351.1     3.0    999.0   0.00  
  43    3:50    0.0    70   15.0     0    333.4     1.8    999.0   0.00  
  43    4:00    0.0    69   15.2     0    247.4     2.4    999.0   0.00  
  43    4:10    0.0    70   14.2     2    255.5     3.0    999.0   0.00  
  43    4:20    0.0    70   14.6     3    266.5     3.6    999.0   0.00  
  43    4:30    0.0    70   14.5     4    275.3     4.8    999.0   0.00  
  43    4:40    0.0    69   14.9     5    282.9     5.4    999.0   0.00  
  43    4:50    0.0    69   14.9     5    285.3     6.0    999.0   0.00  
  43    5:00    0.0    70   14.9     6    283.2     6.6    999.0   0.00  
  43    5:10    0.0    70   15.3     6    288.1     6.6    999.0   0.00  
  43    5:20    0.0    71   14.7     7    294.6     7.8    999.0   0.00  
  43    5:30    0.0    71   14.7     7    296.0     7.8    999.0   0.00  
  43    5:40    0.0    71   14.5     6    300.6     7.2    999.0   0.00  
  43    5:50    0.0    70   14.9     6    314.0     6.6    999.0   0.00  
  43    6:00    0.0    70   14.5     5    307.8     5.4    999.0   0.00  
  43    6:10    0.0    70   14.8     5    304.1     6.0    999.0   0.00  
  43    6:20    0.0    70   14.5     5    313.0     6.0    999.0   0.00  
  43    6:30    0.0    70   14.4     4    340.5     4.8    999.0   0.00  
  43    6:40    2.0    70   14.7     3     13.1     4.2    999.0   0.00  
  43    6:50    7.0    70   15.1     3     45.5     3.6    999.0   0.00  
  43    7:00   20.0    70   14.6     3     37.5     3.6    999.0   0.00  
  43    7:10   40.0    71   14.2     2     19.0     2.4    999.0   0.00  
  43    7:20   68.0    72   14.0     3    327.0     3.0    999.0   0.00  
  43    7:30  101.0    72   14.8     2    314.8     3.0    999.0   0.00  
  43    7:40  128.0    72   14.9     2    311.0     3.0    999.0   0.00  
  43    7:50  155.0    73   14.4     0    276.5     1.8    999.0   0.00  
  43    8:00  182.0    72   15.8     2    256.7     3.0    999.0   0.00  
  43    8:10  209.0    72   15.9     2    242.4     3.0    999.0   0.00  
  43    8:20  236.0    73   15.5     1    232.5     1.8    999.0   0.00  
  43    8:30  263.0    74   16.3     1    237.5     1.8    999.0   0.00  
  43    8:40  289.0    74   16.0     2    217.9     2.4    999.0   0.00  
  43    8:50  314.0    74   17.9     2    224.6     2.4    999.0   0.00  
  43    9:00  340.0    74   18.0     2    223.6     2.4    999.0   0.00  
  43    9:10  364.0    77   19.5     2    117.7     4.2    999.0   0.00  
  43    9:20  387.0    77   18.7     2    131.9     4.2    999.0   0.00  
  43    9:30  409.0    78   20.1     2     98.8     4.8    999.0   0.00  
  43    9:40  430.0    77   21.6     4    104.4     6.0    999.0   0.00  
  43    9:50  449.0    78   22.3     4    109.0     6.6    999.0   0.00  
  43   10:00  468.0    78   23.7     4    103.7     6.0    999.0   0.00  
  43   10:10  485.0    78   24.4     4    107.7     6.0    999.0   0.00  
  43   10:20  501.0    78   24.4     4    105.9     6.0    999.0   0.00  
  43   10:30  516.0    78   25.9     5    110.1     7.2    999.0   0.00  
  43   10:40  530.0    77   26.6     5    112.9     7.2    999.0   0.00  
  43   10:50  542.0    77   27.8     5    103.2     6.6    999.0   0.00  
  43   11:00  554.0    78   28.2     5    109.0     7.2    999.0   0.00  
  43   11:10  560.0    78   27.6     5    111.3     6.6    999.0   0.00  
  43   11:20  572.0    77   27.7     5    113.8     6.6    999.0   0.00  
  43   11:30  578.0    77   26.1     5    114.8     7.8    999.0   0.00  
  43   11:40  584.0    77   24.5     5    110.0     7.2    999.0   0.00  
  43   11:50  586.0    78   24.4     5    112.4     7.8    999.0   0.00  
  43   12:00  589.0    78   24.5     5    110.1     7.8    999.0   0.00  
  43   12:10  590.0    79   24.2     5    111.0     7.2    999.0   0.00  
  43   12:20  588.0    78   26.6     5    107.0     7.8    999.0   0.00  
  43   12:30  586.0    78   26.3     5    108.8     6.6    999.0   0.00  
  43   12:40  581.0    78   26.1     5    109.1     7.2    999.0   0.00  
  43   12:50  576.0    77   25.8     4    110.1     7.2    999.0   0.00  
  43   13:00  569.0    77   26.9     4    102.7     6.0    999.0   0.00  
  43   13:10  563.0    78   26.9     4    105.6     6.0    999.0   0.00  
  43   13:20  553.0    78   27.3     5    106.6     6.6    999.0   0.00  
  43   13:30  542.0    77   27.6     5    107.7     6.6    999.0   0.00  
  43   13:40  531.0    78   27.0     4    113.0     6.0    999.0   0.00  
  43   13:50  519.0    79   25.1     3    119.1     6.0    999.0   0.00  
  43   14:00  507.0    81   21.7     2    159.3     3.6    999.0   0.00  
  43   14:10  492.0    81   21.7     2    178.6     4.2    999.0   0.00  
  43   14:20  397.0    80   21.3     2    244.9     4.8    999.0   0.00  
  43   14:30  157.0    78   20.1     4    260.1     5.4    999.0   0.00  
  43   14:40  418.0    77   19.1     4    256.6     6.6    999.0   0.00  
  43   14:50  418.0    78   17.2     6    254.2     7.8    999.0   0.00  
  43   15:00  397.0    77   16.7     6    249.5     7.8    999.0   0.00  
  43   15:10  374.0    78   18.6     4    226.7     6.6    999.0   0.00  
  43   15:20  351.0    80   21.5     3    254.0     6.6    999.0   0.00  
  43   15:30  326.0    76   23.3     7    256.6    13.1    999.0   0.00  
  43   15:40  301.0    74   17.4    12    260.0    14.3    999.0   0.00  
  43   15:50  275.0    73   18.5    12    256.9    14.9    999.0   0.00  
  43   16:00  249.0    73   17.3    13    258.7    14.9    999.0   0.00  
  43   16:10  222.0    73   16.0    13    259.5    15.5    999.0   0.00  
  43   16:20  195.0    73   15.7    12    258.7    14.3    999.0   0.00  
  43   16:30  167.0    73   16.2    12    258.6    13.7    999.0   0.00  
  43   16:40  137.0    72   17.0    11    259.5    13.7    999.0   0.00  
  43   16:50  109.0    72   19.0    11    258.3    13.1    999.0   0.00  
  43   17:00   86.0    71   19.4    10    259.0    12.5    999.0   0.00  
  43   17:10   54.0    71   19.1    10    256.7    11.9    999.0   0.00  
  43   17:20   31.0    70   18.3     9    261.5    10.8    999.0   0.00  
  43   17:30   13.0    70   17.7    11    260.2    13.1    999.0   0.00  
  43   17:40    4.0    70   18.0    10    260.8    12.5    999.0   0.00  
  43   17:50    0.0    70   16.4    10    259.7    12.5    999.0   0.00  
  43   18:00    0.0    70   17.3     9    262.0    11.3    999.0   0.00  
  43   18:10    0.0    69   18.0     9    265.7    10.8    999.0   0.00  
  43   18:20    0.0    69   17.7     8    265.0    10.2    999.0   0.00  
  43   18:30    0.0    70   16.8     6    266.2     7.8    999.0   0.00  
  43   18:40    0.0    70   17.0     7    268.1     8.4    999.0   0.00  

Return to Dakin Peak graphs page.


Western Regional Climate Center,wrcc@dri.edu